Time;durP1;ratioP1;P1;durP2;ratioP2;P2;SDS_P1;SDS_P2;PMS_P1;PMS_P2;Temp;Humidity;BMP_temperature;BMP_pressure;BME280_temperature;BME280_humidity;BME280_pressure;Samples;Min_cycle;Max_cycle;Signal;HPM_P1;HPM_P2
2024/01/08 00:01:17;;;;;;;12.95;9.30;;;;;;;-1.85;100.00;102998.09;5072468;27;20509;-74
2024/01/08 00:03:43;;;;;;;10.43;8.43;;;;;;;-1.99;100.00;103002.13;5094862;27;20036;-73
2024/01/08 00:06:08;;;;;;;11.15;8.55;;;;;;;-2.01;100.00;102998.56;5093450;27;20035;-73
2024/01/08 00:08:34;;;;;;;14.68;9.38;;;;;;;-1.93;100.00;102999.66;5102227;27;20036;-74
2024/01/08 00:10:59;;;;;;;11.68;9.18;;;;;;;-2.04;100.00;103001.13;5085239;27;20574;-73
2024/01/08 00:13:25;;;;;;;12.40;8.88;;;;;;;-2.02;100.00;102990.69;5089365;28;20086;-74
2024/01/08 00:15:50;;;;;;;13.98;8.52;;;;;;;-1.99;100.00;102996.00;5095640;27;20137;-74
2024/01/08 00:18:16;;;;;;;11.90;8.82;;;;;;;-2.17;100.00;102999.06;5094192;27;20040;-73
2024/01/08 00:20:42;;;;;;;12.00;8.88;;;;;;;-2.32;100.00;103007.41;5097174;27;20035;-74
2024/01/08 00:23:07;;;;;;;13.57;9.32;;;;;;;-2.33;100.00;103017.84;5088663;27;20819;-74
2024/01/08 00:25:33;;;;;;;13.07;9.82;;;;;;;-2.32;100.00;103010.03;5100694;27;20734;-74
2024/01/08 00:27:58;;;;;;;14.90;9.88;;;;;;;-2.30;100.00;103013.59;5102641;27;20032;-73
2024/01/08 00:30:24;;;;;;;14.27;9.85;;;;;;;-2.40;100.00;103007.25;5098614;27;20301;-73
2024/01/08 00:32:49;;;;;;;12.77;8.73;;;;;;;-2.33;100.00;103002.16;5101517;27;20596;-73
2024/01/08 00:35:15;;;;;;;13.75;9.38;;;;;;;-2.41;100.00;103000.25;5100796;27;20028;-74
2024/01/08 00:37:43;;;;;;;16.30;8.73;;;;;;;-2.28;100.00;102982.25;5101704;27;20710;-73
2024/01/08 00:40:09;;;;;;;13.18;9.02;;;;;;;-2.54;100.00;103000.78;5096312;27;20105;-73
2024/01/08 00:42:36;;;;;;;21.13;9.32;;;;;;;-2.44;100.00;102991.44;5096091;27;20973;-73
2024/01/08 00:45:02;;;;;;;17.45;9.48;;;;;;;-2.50;100.00;102997.41;5093444;27;20032;-73
2024/01/08 00:47:28;;;;;;;13.75;8.98;;;;;;;-2.46;100.00;102995.72;5080741;27;20517;-74
2024/01/08 00:49:54;;;;;;;15.80;8.38;;;;;;;-2.59;100.00;102997.16;5075276;27;20039;-73
2024/01/08 00:52:19;;;;;;;15.00;8.48;;;;;;;-2.47;100.00;103001.81;5090248;28;20151;-73
2024/01/08 00:54:45;;;;;;;14.80;8.23;;;;;;;-2.52;100.00;103009.53;5095233;27;20043;-73
2024/01/08 00:57:10;;;;;;;12.00;7.78;;;;;;;-2.62;100.00;103004.91;5093919;27;20620;-73
2024/01/08 00:59:35;;;;;;;11.63;8.27;;;;;;;-2.58;100.00;103004.16;5091507;27;20388;-72
2024/01/08 01:02:01;;;;;;;11.68;7.50;;;;;;;-2.58;100.00;103009.38;5105676;27;20149;-73
2024/01/08 01:04:27;;;;;;;13.27;8.57;;;;;;;-2.56;100.00;103009.41;5075465;27;20027;-74
2024/01/08 01:06:52;;;;;;;12.30;8.48;;;;;;;-2.68;100.00;103017.81;5096064;27;20032;-74
2024/01/08 01:09:18;;;;;;;13.05;7.75;;;;;;;-2.57;100.00;103018.09;5083351;27;20028;-74
2024/01/08 01:11:43;;;;;;;12.15;8.05;;;;;;;-2.82;100.00;103025.28;5098507;27;20040;-74
2024/01/08 01:14:09;;;;;;;12.73;7.57;;;;;;;-2.65;100.00;103024.00;5079175;27;20053;-73
2024/01/08 01:16:34;;;;;;;12.25;8.02;;;;;;;-2.72;100.00;103027.28;5103204;27;20054;-73
2024/01/08 01:19:00;;;;;;;13.45;8.30;;;;;;;-2.74;100.00;103017.66;5095046;28;20086;-72
2024/01/08 01:21:27;;;;;;;14.02;7.72;;;;;;;-2.77;100.00;103022.78;5100254;27;20310;-74
2024/01/08 01:23:53;;;;;;;13.55;8.02;;;;;;;-2.72;100.00;103029.00;5102520;27;20036;-73
2024/01/08 01:26:19;;;;;;;15.50;8.13;;;;;;;-2.81;100.00;103033.97;5092124;28;20032;-73
2024/01/08 01:28:44;;;;;;;19.05;8.98;;;;;;;-2.74;100.00;103030.72;5103829;27;20396;-73
2024/01/08 01:31:10;;;;;;;12.57;8.18;;;;;;;-2.80;100.00;103043.59;5083929;28;20032;-73
2024/01/08 01:33:35;;;;;;;11.65;8.00;;;;;;;-2.92;100.00;103034.56;5104592;27;20055;-73
2024/01/08 01:36:01;;;;;;;12.80;8.48;;;;;;;-2.79;100.00;103035.81;5085698;28;20039;-74
2024/01/08 01:38:26;;;;;;;11.52;7.47;;;;;;;-2.77;100.00;103038.44;5115505;27;20046;-73
2024/01/08 01:40:52;;;;;;;15.32;8.48;;;;;;;-2.76;100.00;103035.00;5110186;27;20135;-73
2024/01/08 01:43:21;;;;;;;13.50;8.48;;;;;;;-2.85;100.00;103037.38;5088544;28;20036;-73
2024/01/08 01:45:48;;;;;;;15.35;8.45;;;;;;;-2.93;100.00;103043.25;5102827;27;20496;-73
2024/01/08 01:48:14;;;;;;;13.50;8.27;;;;;;;-2.83;100.00;103039.16;5102982;28;20099;-73
2024/01/08 01:50:40;;;;;;;13.85;7.95;;;;;;;-2.92;100.00;103039.78;5119749;27;20075;-74
2024/01/08 01:53:06;;;;;;;13.68;8.82;;;;;;;-3.00;100.00;103038.72;5119592;27;20036;-73
2024/01/08 01:55:31;;;;;;;19.23;8.55;;;;;;;-3.07;100.00;103043.72;5086724;27;20041;-73
2024/01/08 01:57:57;;;;;;;16.35;8.40;;;;;;;-3.06;100.00;103035.94;5101384;27;20032;-73
2024/01/08 02:00:22;;;;;;;25.52;9.65;;;;;;;-3.03;100.00;103042.97;5077119;27;20544;-73
2024/01/08 02:02:48;;;;;;;16.77;9.02;;;;;;;-2.89;100.00;103028.56;5090584;27;20117;-73
2024/01/08 02:05:14;;;;;;;13.25;8.75;;;;;;;-2.97;100.00;103035.28;5084795;27;20115;-73
2024/01/08 02:07:40;;;;;;;14.98;9.30;;;;;;;-3.07;100.00;103041.97;5099533;27;20054;-72
2024/01/08 02:10:06;;;;;;;15.10;9.27;;;;;;;-3.02;100.00;103034.28;5084918;28;20316;-73
2024/01/08 02:12:32;;;;;;;15.80;9.27;;;;;;;-2.80;100.00;103028.81;5088801;28;20028;-73
2024/01/08 02:14:57;;;;;;;18.88;9.32;;;;;;;-3.00;100.00;103032.63;5096478;27;20477;-73
2024/01/08 02:17:23;;;;;;;23.13;9.80;;;;;;;-3.02;100.00;103026.44;5099070;27;20038;-74
2024/01/08 02:19:48;;;;;;;15.02;8.48;;;;;;;-3.03;100.00;103028.19;5105246;27;20035;-73
2024/01/08 02:22:14;;;;;;;15.80;9.63;;;;;;;-3.06;100.00;103033.34;5095674;27;20043;-73
2024/01/08 02:24:40;;;;;;;19.05;8.32;;;;;;;-3.11;100.00;103029.72;5102624;27;20048;-73
2024/01/08 02:27:06;;;;;;;17.45;10.00;;;;;;;-2.99;100.00;103032.66;5097963;27;20071;-73
2024/01/08 02:29:31;;;;;;;17.77;10.25;;;;;;;-2.85;100.00;103040.00;5088759;28;20469;-73
2024/01/08 02:31:57;;;;;;;17.50;8.93;;;;;;;-2.80;100.00;103048.84;5076029;28;20031;-74
2024/01/08 02:34:22;;;;;;;17.90;9.40;;;;;;;-2.79;100.00;103045.38;5097347;27;20298;-73
2024/01/08 02:36:48;;;;;;;18.70;10.05;;;;;;;-2.66;100.00;103042.22;5097338;27;20137;-74
2024/01/08 02:39:13;;;;;;;18.10;9.27;;;;;;;-2.79;100.00;103040.16;5096179;27;20117;-73
2024/01/08 02:41:38;;;;;;;16.58;10.30;;;;;;;-2.79;100.00;103043.63;5092427;27;20043;-73
2024/01/08 02:44:04;;;;;;;13.82;8.73;;;;;;;-2.69;100.00;103053.50;5096594;27;20800;-72
2024/01/08 02:46:29;;;;;;;22.50;10.15;;;;;;;-2.73;100.00;103051.63;5102976;27;20031;-74
2024/01/08 02:48:55;;;;;;;16.38;8.85;;;;;;;-2.63;100.00;103044.94;5072968;28;20141;-72
2024/01/08 02:51:20;;;;;;;15.25;9.05;;;;;;;-2.62;100.00;103044.06;5084438;28;20031;-73
2024/01/08 02:53:46;;;;;;;19.77;9.63;;;;;;;-2.76;100.00;103045.44;5098006;27;20066;-74
2024/01/08 02:56:22;;;;;;;18.27;9.65;;;;;;;-2.79;100.00;103038.41;5092865;27;20314;-73
2024/01/08 02:58:48;;;;;;;16.15;10.07;;;;;;;-2.73;100.00;103035.09;5085821;27;20036;-73
2024/01/08 03:01:14;;;;;;;18.63;9.60;;;;;;;-2.61;100.00;103043.25;5090130;27;20611;-73
2024/01/08 03:03:39;;;;;;;19.02;9.52;;;;;;;-2.72;100.00;103044.69;5098345;27;20027;-73
2024/01/08 03:06:05;;;;;;;17.40;9.38;;;;;;;-2.65;100.00;103049.25;5089324;27;20833;-73
2024/01/08 03:08:30;;;;;;;15.43;9.57;;;;;;;-2.61;100.00;103046.75;5085203;27;20036;-73
2024/01/08 03:10:56;;;;;;;16.00;9.50;;;;;;;-2.71;100.00;103047.34;5094220;27;20447;-73
2024/01/08 03:13:21;;;;;;;15.48;9.35;;;;;;;-2.63;100.00;103052.75;5068391;27;20032;-73
2024/01/08 03:15:47;;;;;;;15.05;9.35;;;;;;;-2.61;100.00;103043.25;5105727;27;20135;-73
2024/01/08 03:18:12;;;;;;;17.90;9.85;;;;;;;-2.58;100.00;103055.50;5100093;27;20036;-73
2024/01/08 03:20:38;;;;;;;17.80;10.05;;;;;;;-2.68;100.00;103051.75;5087675;27;20036;-74
2024/01/08 03:23:04;;;;;;;16.10;8.90;;;;;;;-2.69;100.00;103050.00;5104372;27;20253;-73
2024/01/08 03:25:29;;;;;;;18.13;9.23;;;;;;;-2.60;100.00;103047.63;5087014;28;20023;-73
2024/01/08 03:27:55;;;;;;;16.20;9.30;;;;;;;-2.45;100.00;103053.25;5100251;27;20241;-74
2024/01/08 03:30:20;;;;;;;17.90;9.50;;;;;;;-2.49;100.00;103051.41;5103418;27;20057;-73
2024/01/08 03:32:46;;;;;;;14.45;9.00;;;;;;;-2.44;100.00;103043.69;5092722;27;20047;-73
2024/01/08 03:35:11;;;;;;;15.38;9.35;;;;;;;-2.71;100.00;103047.34;5085501;27;20035;-73
2024/01/08 03:37:37;;;;;;;16.42;9.02;;;;;;;-2.66;100.00;103060.50;5100731;27;20647;-74
2024/01/08 03:40:04;;;;;;;15.85;9.75;;;;;;;-2.80;100.00;103054.06;5093737;27;20047;-73
2024/01/08 03:42:30;;;;;;;14.32;8.82;;;;;;;-2.75;100.00;103069.00;5098125;27;20040;-73
2024/01/08 03:44:56;;;;;;;18.52;8.57;;;;;;;-2.68;100.00;103059.59;5102728;27;20058;-73
2024/01/08 03:47:21;;;;;;;19.73;10.35;;;;;;;-2.60;100.00;103058.09;5100006;27;21005;-73
2024/01/08 03:49:47;;;;;;;18.33;9.45;;;;;;;-2.66;100.00;103057.88;5094416;27;20038;-74
2024/01/08 03:52:12;;;;;;;18.67;8.98;;;;;;;-2.70;100.00;103062.16;5101114;27;20266;-74
2024/01/08 03:54:38;;;;;;;16.98;9.70;;;;;;;-2.57;100.00;103052.03;5097881;27;20032;-73
2024/01/08 03:57:04;;;;;;;19.70;10.05;;;;;;;-2.67;100.00;103066.56;5098205;27;20096;-73
2024/01/08 03:59:29;;;;;;;16.70;8.73;;;;;;;-2.63;100.00;103066.69;5101488;27;20956;-73
2024/01/08 04:01:55;;;;;;;20.40;9.85;;;;;;;-2.70;100.00;103063.91;5091373;28;20094;-73
2024/01/08 04:04:21;;;;;;;19.10;10.13;;;;;;;-2.64;100.00;103062.31;5097956;27;20032;-73
2024/01/08 04:06:46;;;;;;;18.02;9.30;;;;;;;-2.63;100.00;103058.88;5096803;27;20091;-73
2024/01/08 04:09:15;;;;;;;16.33;10.07;;;;;;;-2.69;100.00;103061.31;5090715;28;20030;-74
2024/01/08 04:11:41;;;;;;;19.38;10.75;;;;;;;-2.61;100.00;103062.44;5098743;27;20036;-74
2024/01/08 04:14:07;;;;;;;17.98;9.30;;;;;;;-2.58;100.00;103060.72;5077297;27;20039;-73
2024/01/08 04:16:33;;;;;;;16.85;9.25;;;;;;;-2.49;100.00;103060.97;5081963;28;20032;-73
2024/01/08 04:18:58;;;;;;;20.15;10.43;;;;;;;-2.57;100.00;103055.53;5091644;27;20052;-74
2024/01/08 04:21:23;;;;;;;17.05;9.45;;;;;;;-2.61;100.00;103057.19;5098642;27;20686;-73
2024/01/08 04:23:49;;;;;;;20.73;10.98;;;;;;;-2.59;100.00;103059.84;5095206;27;20126;-73
2024/01/08 04:26:16;;;;;;;17.40;10.25;;;;;;;-2.52;100.00;103061.75;5081003;27;20036;-73
2024/01/08 04:28:41;;;;;;;19.05;10.35;;;;;;;-2.44;100.00;103056.75;5100716;27;20032;-73
2024/01/08 04:31:07;;;;;;;18.95;11.45;;;;;;;-2.46;100.00;103063.66;5091209;28;20028;-74
2024/01/08 04:33:32;;;;;;;19.55;10.63;;;;;;;-2.47;100.00;103057.53;5068385;28;20032;-73
2024/01/08 04:35:58;;;;;;;21.35;11.15;;;;;;;-2.47;100.00;103052.31;5092492;28;20036;-73
2024/01/08 04:38:23;;;;;;;18.23;10.35;;;;;;;-2.33;100.00;103062.25;5098522;27;36502;-74
2024/01/08 04:40:49;;;;;;;20.15;11.50;;;;;;;-2.42;100.00;103060.28;5104901;27;20032;-73
2024/01/08 04:43:14;;;;;;;21.33;10.30;;;;;;;-2.37;100.00;103063.88;5083646;27;20036;-73
2024/01/08 04:45:39;;;;;;;21.35;10.82;;;;;;;-2.51;100.00;103058.34;5096444;27;20036;-74
2024/01/08 04:48:05;;;;;;;17.40;11.50;;;;;;;-2.35;100.00;103060.50;5097501;27;20033;-73
2024/01/08 04:50:31;;;;;;;24.33;12.00;;;;;;;-2.39;100.00;103055.13;5102527;27;20498;-73
2024/01/08 04:52:57;;;;;;;24.75;12.60;;;;;;;-2.31;100.00;103050.97;5088448;27;20913;-73
2024/01/08 04:55:23;;;;;;;20.90;12.05;;;;;;;-2.41;100.00;103054.19;5104862;27;20043;-73
2024/01/08 04:57:49;;;;;;;22.75;12.15;;;;;;;-2.40;100.00;103061.22;5108252;27;20063;-73
2024/01/08 05:00:14;;;;;;;24.15;12.13;;;;;;;-2.30;100.00;103057.13;5105989;27;20866;-74
2024/01/08 05:02:40;;;;;;;21.95;12.18;;;;;;;-2.20;100.00;103061.72;5107664;27;20044;-73
2024/01/08 05:05:09;;;;;;;20.63;11.77;;;;;;;-2.24;100.00;103046.81;5104890;27;20036;-73
2024/01/08 05:07:34;;;;;;;23.77;12.13;;;;;;;-2.31;100.00;103053.59;5098698;27;20032;-73
2024/01/08 05:10:00;;;;;;;20.52;11.93;;;;;;;-2.21;100.00;103059.94;5074873;27;20184;-73
2024/01/08 05:12:25;;;;;;;25.73;13.10;;;;;;;-2.27;100.00;103062.41;5110530;27;20032;-73
2024/01/08 05:14:51;;;;;;;22.90;13.27;;;;;;;-2.34;100.00;103053.53;5102797;27;20357;-74
2024/01/08 05:17:16;;;;;;;24.65;12.80;;;;;;;-2.25;100.00;103052.88;5096224;27;20040;-73
2024/01/08 05:19:42;;;;;;;26.88;13.75;;;;;;;-2.22;100.00;103056.44;5105891;27;20116;-74
2024/01/08 05:22:08;;;;;;;21.90;12.48;;;;;;;-2.29;100.00;103054.53;5064500;27;20090;-73
2024/01/08 05:24:33;;;;;;;25.08;13.40;;;;;;;-2.17;100.00;103053.94;5100107;27;20119;-73
2024/01/08 05:26:58;;;;;;;28.23;15.93;;;;;;;-2.22;100.00;103050.34;5096275;28;20043;-73
2024/01/08 05:29:24;;;;;;;22.98;13.18;;;;;;;-2.22;100.00;103052.94;5087313;28;20123;-73
2024/01/08 05:31:50;;;;;;;25.63;13.82;;;;;;;-2.26;100.00;103053.72;5089387;28;20032;-74
2024/01/08 05:34:16;;;;;;;22.83;12.77;;;;;;;-2.19;100.00;103042.59;5104795;27;20275;-73
2024/01/08 05:36:42;;;;;;;24.33;14.23;;;;;;;-2.12;100.00;103049.72;5104286;27;20028;-72
2024/01/08 05:39:07;;;;;;;24.77;14.20;;;;;;;-2.20;100.00;103049.53;5111928;27;20081;-73
2024/01/08 05:41:34;;;;;;;23.98;13.15;;;;;;;-2.13;100.00;103045.34;5110615;27;20070;-73
2024/01/08 05:43:59;;;;;;;24.60;12.50;;;;;;;-2.17;100.00;103060.03;5108190;27;20045;-73
2024/01/08 05:46:25;;;;;;;26.98;14.60;;;;;;;-2.09;100.00;103049.81;5110829;27;20417;-72
2024/01/08 05:48:50;;;;;;;27.42;14.82;;;;;;;-2.05;100.00;103045.53;5113347;27;20032;-73
2024/01/08 05:51:17;;;;;;;25.10;14.23;;;;;;;-2.05;100.00;103041.19;5094385;28;20036;-73
2024/01/08 05:53:43;;;;;;;28.33;14.48;;;;;;;-2.11;100.00;103025.34;5109082;27;20036;-73
2024/01/08 05:56:08;;;;;;;29.83;13.90;;;;;;;-2.09;100.00;103041.97;5065109;28;20529;-73
2024/01/08 05:58:34;;;;;;;27.73;14.43;;;;;;;-1.99;100.00;103036.09;5103458;27;20047;-73
2024/01/08 06:00:59;;;;;;;22.67;13.02;;;;;;;-2.01;100.00;103035.16;5106308;27;20127;-73
2024/01/08 06:03:25;;;;;;;23.13;13.23;;;;;;;-1.99;100.00;103038.72;5085083;27;20044;-73
2024/01/08 06:05:50;;;;;;;25.02;13.18;;;;;;;-1.94;100.00;103037.09;5098123;27;20028;-73
2024/01/08 06:08:16;;;;;;;20.55;11.73;;;;;;;-1.97;100.00;103043.97;5100795;27;20921;-73
2024/01/08 06:10:42;;;;;;;22.65;13.20;;;;;;;-1.95;100.00;103034.47;5099418;27;20024;-73
2024/01/08 06:13:11;;;;;;;21.45;13.30;;;;;;;-2.09;100.00;103047.19;5068914;28;20978;-73
2024/01/08 06:15:37;;;;;;;27.30;14.23;;;;;;;-1.88;100.00;103039.84;5100285;27;20163;-73
2024/01/08 06:18:06;;;;;;;24.33;13.55;;;;;;;-1.80;100.00;103044.38;5082976;27;20036;-73
2024/01/08 06:20:33;;;;;;;20.92;12.15;;;;;;;-1.90;100.00;103040.69;5087048;27;20035;-72
2024/01/08 06:22:59;;;;;;;22.17;12.85;;;;;;;-1.99;100.00;103041.34;5096662;27;20047;-73
2024/01/08 06:25:25;;;;;;;23.35;12.75;;;;;;;-1.99;100.00;103049.19;5100436;27;20032;-73
2024/01/08 06:27:50;;;;;;;23.08;13.23;;;;;;;-1.94;100.00;103042.31;5100500;27;20032;-73
2024/01/08 06:30:17;;;;;;;21.52;12.30;;;;;;;-1.85;100.00;103045.16;5102747;27;20033;-73
2024/01/08 06:32:43;;;;;;;23.55;12.40;;;;;;;-1.90;100.00;103043.28;5097827;27;20616;-73
2024/01/08 06:35:09;;;;;;;21.60;12.38;;;;;;;-1.89;100.00;103047.66;5088920;28;20035;-73
2024/01/08 06:37:34;;;;;;;24.05;12.77;;;;;;;-2.04;100.00;103048.19;5098695;27;20032;-72
2024/01/08 06:40:00;;;;;;;22.20;12.65;;;;;;;-1.93;100.00;103053.66;5104981;27;20059;-72
2024/01/08 06:42:25;;;;;;;22.73;12.73;;;;;;;-1.93;100.00;103057.16;5099073;27;20036;-73
2024/01/08 06:44:51;;;;;;;24.00;13.90;;;;;;;-1.87;100.00;103053.81;5092263;27;20472;-73
2024/01/08 06:47:16;;;;;;;23.92;12.38;;;;;;;-1.88;100.00;103063.38;5100242;27;20035;-73
2024/01/08 06:49:43;;;;;;;23.30;12.38;;;;;;;-1.88;100.00;103047.69;5091377;28;20041;-73
2024/01/08 06:52:09;;;;;;;18.13;10.85;;;;;;;-1.78;100.00;103053.13;5093372;27;20120;-72
2024/01/08 06:54:34;;;;;;;21.33;12.65;;;;;;;-1.74;100.00;103055.88;5083850;27;20035;-72
2024/01/08 06:57:00;;;;;;;24.60;11.98;;;;;;;-1.80;100.00;103058.34;5091009;27;20089;-73
2024/01/08 06:59:26;;;;;;;20.50;11.52;;;;;;;-1.68;100.00;103060.34;5090870;27;20441;-72
2024/01/08 07:01:51;;;;;;;21.15;11.77;;;;;;;-1.71;100.00;103049.81;5091991;27;20742;-73
2024/01/08 07:04:18;;;;;;;22.15;10.90;;;;;;;-1.74;100.00;103048.03;5098696;27;20023;-73
2024/01/08 07:06:43;;;;;;;19.25;10.93;;;;;;;-1.61;100.00;103052.69;5102027;27;20032;-73
2024/01/08 07:09:09;;;;;;;18.95;10.68;;;;;;;-1.76;100.00;103061.88;5091506;27;20032;-72
2024/01/08 07:11:34;;;;;;;20.05;11.05;;;;;;;-1.67;100.00;103064.72;5091579;27;20041;-73
2024/01/08 07:14:00;;;;;;;18.58;10.88;;;;;;;-1.60;100.00;103064.03;5096285;27;20031;-73
2024/01/08 07:16:26;;;;;;;21.30;10.50;;;;;;;-1.69;100.00;103069.06;5079352;27;20050;-73
2024/01/08 07:18:52;;;;;;;19.25;10.05;;;;;;;-1.65;100.00;103061.31;5092017;27;20478;-72
2024/01/08 07:21:18;;;;;;;20.08;10.27;;;;;;;-1.72;100.00;103068.97;5100103;27;20038;-73
2024/01/08 07:23:45;;;;;;;17.23;9.85;;;;;;;-1.60;100.00;103070.16;5078747;27;20069;-73
2024/01/08 07:26:14;;;;;;;15.30;9.43;;;;;;;-1.68;100.00;103071.69;5100719;27;20035;-73
2024/01/08 07:28:45;;;;;;;17.73;9.48;;;;;;;-1.71;100.00;103069.00;5097714;27;20069;-73
2024/01/08 07:31:12;;;;;;;17.70;8.85;;;;;;;-1.61;100.00;103071.00;5098318;27;20060;-73
2024/01/08 07:33:37;;;;;;;16.25;9.07;;;;;;;-1.68;100.00;103076.03;5089506;27;20032;-73
2024/01/08 07:36:04;;;;;;;15.07;9.10;;;;;;;-1.51;100.00;103068.56;5105525;27;20155;-73
2024/01/08 07:38:30;;;;;;;17.85;8.93;;;;;;;-1.60;100.00;103072.75;5086241;28;20055;-73
2024/01/08 07:40:55;;;;;;;16.73;9.82;;;;;;;-1.59;100.00;103074.53;5096253;27;20043;-73
2024/01/08 07:43:21;;;;;;;19.77;8.82;;;;;;;-1.64;100.00;103077.88;5079931;27;20572;-74
2024/01/08 07:45:47;;;;;;;14.23;8.52;;;;;;;-1.61;100.00;103083.16;5094417;27;20134;-73
2024/01/08 07:48:13;;;;;;;13.73;9.05;;;;;;;-1.46;100.00;103085.25;5099923;27;20029;-73
2024/01/08 07:50:39;;;;;;;15.57;8.68;;;;;;;-1.67;100.00;103091.75;5056282;27;20405;-73
2024/01/08 07:53:04;;;;;;;14.90;8.50;;;;;;;-1.52;100.00;103083.38;5090424;27;20032;-73
2024/01/08 07:55:30;;;;;;;16.15;9.57;;;;;;;-1.41;100.00;103084.50;5074337;27;20772;-73
2024/01/08 07:57:55;;;;;;;18.23;10.45;;;;;;;-1.54;100.00;103082.47;5088083;27;20036;-73
2024/01/08 08:00:22;;;;;;;15.23;8.75;;;;;;;-1.56;100.00;103086.78;5088959;27;20196;-74
2024/01/08 08:02:48;;;;;;;20.98;9.95;;;;;;;-1.52;100.00;103088.63;5084020;27;20033;-73
2024/01/08 08:05:13;;;;;;;16.40;9.63;;;;;;;-1.54;100.00;103089.44;5096169;27;20515;-73
2024/01/08 08:07:39;;;;;;;18.13;8.80;;;;;;;-1.75;100.00;103087.22;5075305;28;20044;-73
2024/01/08 08:10:05;;;;;;;18.23;9.75;;;;;;;-1.52;100.00;103091.22;5092651;27;20442;-73
2024/01/08 08:12:32;;;;;;;17.15;9.70;;;;;;;-1.48;100.00;103094.81;5075633;27;20067;-73
2024/01/08 08:14:58;;;;;;;17.55;8.80;;;;;;;-1.58;100.00;103097.22;5097719;27;20280;-73
2024/01/08 08:17:25;;;;;;;14.45;8.80;;;;;;;-1.70;100.00;103096.94;5094335;27;20032;-73
2024/01/08 08:19:51;;;;;;;15.95;8.95;;;;;;;-1.58;100.00;103099.81;5067396;27;20036;-73
2024/01/08 08:22:16;;;;;;;15.48;9.23;;;;;;;-1.52;100.00;103106.03;5101871;27;20043;-73
2024/01/08 08:24:42;;;;;;;17.40;9.85;;;;;;;-1.49;100.00;103103.50;5092131;27;20051;-73
2024/01/08 08:27:12;;;;;;;15.48;9.30;;;;;;;-1.47;100.00;103100.06;5093538;27;20144;-73
2024/01/08 08:29:38;;;;;;;21.38;9.85;;;;;;;-1.48;100.00;103105.28;5080285;27;20083;-73
2024/01/08 08:32:05;;;;;;;17.90;10.38;;;;;;;-1.61;100.00;103136.41;5089240;27;20138;-73
2024/01/08 08:34:31;;;;;;;18.20;10.20;;;;;;;-1.60;100.00;103122.47;5090838;27;21069;-73
2024/01/08 08:36:57;;;;;;;16.10;9.13;;;;;;;-1.58;100.00;103143.41;5090648;27;20032;-73
2024/01/08 08:39:22;;;;;;;15.60;9.40;;;;;;;-1.61;100.00;103115.47;5083903;27;20052;-72
2024/01/08 08:41:48;;;;;;;14.98;9.35;;;;;;;-1.45;100.00;103115.81;5097071;27;20040;-73
2024/01/08 08:44:14;;;;;;;17.30;9.77;;;;;;;-1.45;100.00;103119.31;5097404;27;20035;-72
2024/01/08 08:46:39;;;;;;;16.75;10.60;;;;;;;-1.47;100.00;103126.22;5076817;28;20807;-73
2024/01/08 08:49:06;;;;;;;17.55;10.40;;;;;;;-1.54;100.00;103142.66;5091244;28;21096;-72
2024/01/08 08:51:35;;;;;;;23.05;11.07;;;;;;;-1.58;100.00;103151.25;5099052;27;20060;-73
2024/01/08 08:54:03;;;;;;;18.92;11.35;;;;;;;-1.68;100.00;103146.66;5103501;27;20055;-74
2024/01/08 08:56:33;;;;;;;23.25;11.85;;;;;;;-1.61;100.00;103167.78;5109033;27;20035;-73
2024/01/08 08:59:00;;;;;;;21.45;12.50;;;;;;;-1.48;100.00;103148.00;5098097;27;20028;-72
2024/01/08 09:01:26;;;;;;;19.83;11.40;;;;;;;-1.43;100.00;103138.53;5097867;27;20149;-73
2024/01/08 09:03:54;;;;;;;22.17;11.90;;;;;;;-1.48;100.00;103149.75;5097096;27;20040;-73
2024/01/08 09:06:23;;;;;;;21.05;12.15;;;;;;;-1.51;100.00;103152.28;5080174;27;20028;-73
2024/01/08 09:08:50;;;;;;;21.40;12.00;;;;;;;-1.50;100.00;103156.69;5080957;27;20036;-73
2024/01/08 09:11:16;;;;;;;19.15;11.93;;;;;;;-1.48;100.00;103152.38;5092337;28;20043;-73
2024/01/08 09:13:42;;;;;;;19.88;11.40;;;;;;;-1.43;100.00;103159.47;5091240;27;20040;-72
2024/01/08 09:16:11;;;;;;;19.85;10.80;;;;;;;-1.28;100.00;103147.59;5092022;27;20031;-73
2024/01/08 09:18:37;;;;;;;26.85;11.70;;;;;;;-1.29;100.00;103145.84;5072497;28;20024;-73
2024/01/08 09:21:02;;;;;;;21.20;12.05;;;;;;;-1.07;100.00;103141.09;5102666;27;20032;-73
2024/01/08 09:23:28;;;;;;;16.83;10.15;;;;;;;-1.15;100.00;103147.03;5106257;27;20031;-73
2024/01/08 09:25:53;;;;;;;21.80;10.60;;;;;;;-1.31;100.00;103151.94;5105415;27;20036;-73
2024/01/08 09:28:19;;;;;;;19.58;10.63;;;;;;;-1.31;100.00;103161.47;5110543;27;20503;-73
2024/01/08 09:30:44;;;;;;;17.58;10.68;;;;;;;-1.13;100.00;103140.97;5090564;27;20036;-73
2024/01/08 09:33:10;;;;;;;20.48;11.07;;;;;;;-1.21;100.00;103150.38;5119372;27;20082;-73
2024/01/08 09:35:36;;;;;;;15.82;9.52;;;;;;;-1.33;100.00;103145.75;5129732;27;20359;-73
2024/01/08 09:38:02;;;;;;;19.98;10.15;;;;;;;-1.23;100.00;103153.81;5107706;28;20029;-73
2024/01/08 09:40:28;;;;;;;16.23;9.95;;;;;;;-1.20;100.00;103149.53;5068732;28;20137;-72
2024/01/08 09:42:55;;;;;;;18.20;10.77;;;;;;;-1.15;100.00;103153.16;5116591;27;20138;-74
2024/01/08 09:45:26;;;;;;;17.35;10.35;;;;;;;-1.06;100.00;103155.94;5112893;28;20032;-74
2024/01/08 09:47:53;;;;;;;17.92;9.95;;;;;;;-1.12;100.00;103161.06;5122392;27;20948;-74
2024/01/08 09:50:19;;;;;;;20.30;10.43;;;;;;;-1.26;100.00;103172.94;5103115;27;20109;-73
2024/01/08 09:52:46;;;;;;;15.65;10.35;;;;;;;-1.13;100.00;103167.16;5113741;28;20040;-73
2024/01/08 09:55:12;;;;;;;17.77;9.95;;;;;;;-1.17;100.00;103165.31;5089274;28;20057;-72
2024/01/08 09:57:38;;;;;;;15.50;9.30;;;;;;;-1.13;100.00;103161.91;5107614;27;20834;-74
2024/01/08 10:00:05;;;;;;;16.90;10.07;;;;;;;-1.08;100.00;103159.41;5105032;27;20043;-73
2024/01/08 10:02:38;;;;;;;18.02;10.43;;;;;;;-1.12;100.00;103161.06;5091015;27;20144;-73
2024/01/08 10:05:06;;;;;;;20.20;11.00;;;;;;;-1.08;100.00;103165.50;5081020;27;20033;-73
2024/01/08 10:07:35;;;;;;;15.18;9.50;;;;;;;-0.97;100.00;103157.00;5111011;27;20071;-73
2024/01/08 10:10:03;;;;;;;15.57;9.70;;;;;;;-1.06;100.00;103158.56;5092694;27;20039;-73
2024/01/08 10:12:31;;;;;;;15.52;10.35;;;;;;;-0.94;100.00;103154.47;5109146;27;20032;-73
2024/01/08 10:14:56;;;;;;;12.95;9.30;;;;;;;-0.79;100.00;103147.81;5098804;27;20119;-74
2024/01/08 10:17:22;;;;;;;18.95;10.30;;;;;;;-0.69;100.00;103151.50;5087262;28;20085;-74
2024/01/08 10:19:48;;;;;;;15.02;9.52;;;;;;;-0.92;100.00;103158.88;5084672;27;20257;-74
2024/01/08 10:22:15;;;;;;;15.60;9.60;;;;;;;-0.93;100.00;103146.63;5093227;27;20036;-74
2024/01/08 10:24:42;;;;;;;13.05;9.18;;;;;;;-0.83;100.00;103145.09;5077405;27;20115;-74
2024/01/08 10:27:09;;;;;;;14.15;9.30;;;;;;;-0.76;100.00;103141.75;5100532;27;20182;-73
2024/01/08 10:29:36;;;;;;;18.10;10.63;;;;;;;-0.96;100.00;103143.94;5094395;27;20077;-74
2024/01/08 10:32:03;;;;;;;15.75;9.65;;;;;;;-0.89;100.00;103137.13;5070810;27;20055;-74
2024/01/08 10:34:30;;;;;;;14.32;8.75;;;;;;;-0.98;100.00;103142.16;5076796;27;20536;-74
2024/01/08 10:36:57;;;;;;;17.05;9.52;;;;;;;-0.82;100.00;103137.25;5100106;27;20032;-74
2024/01/08 10:39:24;;;;;;;16.25;9.05;;;;;;;-0.74;100.00;103133.94;5094002;27;20040;-74
2024/01/08 10:41:50;;;;;;;14.82;9.10;;;;;;;-0.72;100.00;103142.69;5086806;28;20043;-74
2024/01/08 10:44:16;;;;;;;13.73;8.88;;;;;;;-0.60;100.00;103141.22;5101202;27;20125;-74
2024/01/08 10:47:14;;;;;;;17.02;10.10;;;;;;;-0.51;100.00;103132.63;5083483;27;20098;-74
2024/01/08 10:49:41;;;;;;;12.77;7.80;;;;;;;-0.41;100.00;103131.06;5099290;27;20036;-74
2024/01/08 10:52:24;;;;;;;13.50;8.00;;;;;;;-0.42;100.00;103135.44;5095156;27;20082;-74
2024/01/08 10:54:55;;;;;;;10.20;7.15;;;;;;;-0.25;100.00;103133.16;5093294;27;20034;-75
2024/01/08 10:57:26;;;;;;;12.38;8.93;;;;;;;-0.08;100.00;103134.31;5071034;28;20530;-74
2024/01/08 10:59:53;;;;;;;12.23;8.65;;;;;;;0.03;100.00;103126.63;5104417;27;20084;-74
2024/01/08 11:02:20;;;;;;;13.30;8.23;;;;;;;-0.09;100.00;103139.53;5078359;28;20040;-74